Time;durP1;ratioP1;P1;durP2;ratioP2;P2;SDS_P1;SDS_P2;PMS_P1;PMS_P2;Temp;Humidity;BMP_temperature;BMP_pressure;BME280_temperature;BME280_humidity;BME280_pressure;Samples;Min_cycle;Max_cycle;Signal;HPM_P1;HPM_P2
2021/05/05 00:01:29;;;;;;;15.07;5.55;;;;;;;5.74;69.69;100353.19;5114660;28;20101;-46
2021/05/05 00:03:55;;;;;;;2.55;1.02;;;;;;;5.69;69.70;100345.13;5114616;28;20054;-48
2021/05/05 00:06:24;;;;;;;4.43;0.85;;;;;;;5.66;69.92;100351.25;5114030;28;20040;-49
2021/05/05 00:08:50;;;;;;;2.47;0.70;;;;;;;5.66;69.69;100354.81;5114381;28;20036;-46
2021/05/05 00:11:17;;;;;;;1.55;0.68;;;;;;;5.65;69.89;100355.94;5114737;28;20075;-47
2021/05/05 00:13:43;;;;;;;0.88;0.70;;;;;;;5.60;69.77;100356.09;5113602;28;20119;-45
2021/05/05 00:16:12;;;;;;;2.45;0.80;;;;;;;5.57;70.09;100353.97;5114403;28;20058;-46
2021/05/05 00:18:38;;;;;;;2.00;0.60;;;;;;;5.57;69.78;100359.47;5114252;28;20043;-46
2021/05/05 00:21:05;;;;;;;5.43;1.15;;;;;;;5.59;69.81;100367.41;5114083;28;20044;-46
2021/05/05 00:23:31;;;;;;;2.08;1.00;;;;;;;5.54;70.27;100369.16;5113455;28;20132;-51
2021/05/05 00:25:58;;;;;;;1.77;1.00;;;;;;;5.53;70.19;100367.53;5111446;28;20130;-47
2021/05/05 00:28:24;;;;;;;0.75;0.75;;;;;;;5.51;70.27;100371.72;5101179;28;20093;-48
2021/05/05 00:30:51;;;;;;;2.38;0.68;;;;;;;5.47;70.38;100377.06;5105233;28;20045;-46
2021/05/05 00:33:18;;;;;;;2.08;1.35;;;;;;;5.50;70.23;100359.97;5095679;28;20561;-46
2021/05/05 00:35:44;;;;;;;2.50;1.17;;;;;;;5.51;70.49;100375.28;5112444;28;20071;-46
2021/05/05 00:38:10;;;;;;;1.13;1.02;;;;;;;5.53;70.66;100377.72;5113442;28;20069;-45
2021/05/05 00:40:38;;;;;;;1.20;0.90;;;;;;;5.52;70.26;100363.19;5113726;28;20054;-47
2021/05/05 00:43:05;;;;;;;1.42;0.77;;;;;;;5.49;70.67;100363.00;5113691;28;20507;-46
2021/05/05 00:45:32;;;;;;;1.48;0.65;;;;;;;5.41;70.96;100361.88;5097368;28;20040;-46
2021/05/05 00:47:58;;;;;;;1.95;0.85;;;;;;;5.38;70.92;100350.72;5110987;28;20126;-46
2021/05/05 00:50:25;;;;;;;2.25;2.00;;;;;;;5.38;70.85;100357.00;5112948;28;20053;-47
2021/05/05 00:52:51;;;;;;;1.67;0.82;;;;;;;5.33;70.96;100348.94;5113861;28;20481;-45
2021/05/05 00:55:17;;;;;;;2.47;1.23;;;;;;;5.29;70.69;100363.63;5094841;28;20139;-47
2021/05/05 00:57:44;;;;;;;0.57;0.40;;;;;;;5.28;70.68;100362.00;5113167;28;20552;-48
2021/05/05 01:00:13;;;;;;;1.85;0.95;;;;;;;5.25;70.92;100363.44;5113896;28;20101;-46
2021/05/05 01:02:39;;;;;;;0.65;0.55;;;;;;;5.23;70.76;100362.97;5112934;28;20084;-46
2021/05/05 01:05:10;;;;;;;0.80;0.60;;;;;;;5.17;71.18;100366.97;5112856;28;20507;-45
2021/05/05 01:07:36;;;;;;;1.40;0.70;;;;;;;5.17;71.30;100366.16;5112764;28;20048;-45
2021/05/05 01:10:07;;;;;;;3.67;0.73;;;;;;;5.13;71.44;100360.50;5113662;28;20101;-45
2021/05/05 01:12:34;;;;;;;3.00;0.75;;;;;;;5.16;70.79;100367.31;5113183;28;20118;-52
2021/05/05 01:15:05;;;;;;;0.65;0.57;;;;;;;5.15;71.09;100371.16;5110406;28;20051;-50
2021/05/05 01:17:35;;;;;;;1.10;0.88;;;;;;;5.11;71.29;100378.44;5093488;28;20036;-45
2021/05/05 01:20:04;;;;;;;0.57;0.45;;;;;;;5.09;71.67;100370.50;5107123;28;20036;-45
2021/05/05 01:22:30;;;;;;;0.63;0.47;;;;;;;5.07;71.40;100374.69;5113062;28;20112;-47
2021/05/05 01:24:57;;;;;;;1.67;0.52;;;;;;;5.11;71.49;100370.19;5112527;28;20123;-46
2021/05/05 01:27:23;;;;;;;1.25;0.60;;;;;;;5.07;71.60;100367.28;5109095;28;20048;-46
2021/05/05 01:29:50;;;;;;;1.75;0.60;;;;;;;5.08;71.56;100379.88;5105666;28;20051;-48
2021/05/05 01:32:17;;;;;;;0.40;0.40;;;;;;;5.13;71.42;100381.66;5112152;28;20448;-54
2021/05/05 01:34:45;;;;;;;1.45;0.50;;;;;;;5.15;71.56;100380.22;5112733;28;20058;-45
2021/05/05 01:37:11;;;;;;;2.53;0.85;;;;;;;5.15;71.90;100385.69;5112975;28;20044;-45
2021/05/05 01:39:40;;;;;;;5.10;0.68;;;;;;;5.17;71.72;100372.47;5112192;28;20039;-46
2021/05/05 01:42:07;;;;;;;1.42;0.68;;;;;;;5.20;72.09;100388.28;5112683;28;20545;-45
2021/05/05 01:44:38;;;;;;;2.35;0.80;;;;;;;5.27;72.16;100394.13;5111789;28;20120;-45
2021/05/05 01:47:08;;;;;;;2.08;0.80;;;;;;;5.34;72.08;100389.00;5112020;28;20043;-44
2021/05/05 01:49:42;;;;;;;5.18;0.80;;;;;;;5.36;72.82;100386.72;5112641;28;20055;-45
2021/05/05 01:52:09;;;;;;;2.85;0.70;;;;;;;5.37;72.18;100393.84;5111300;28;20043;-47
2021/05/05 01:54:37;;;;;;;1.88;0.50;;;;;;;5.35;71.86;100385.09;5108612;28;20488;-48
2021/05/05 01:57:21;;;;;;;0.90;0.70;;;;;;;5.35;72.54;100385.09;5111806;28;20472;-46
2021/05/05 01:59:49;;;;;;;1.30;0.75;;;;;;;5.40;72.16;100382.19;5109592;28;20097;-45
2021/05/05 02:02:15;;;;;;;3.67;0.95;;;;;;;5.41;71.61;100378.34;5091906;28;20101;-45
2021/05/05 02:04:42;;;;;;;1.25;0.50;;;;;;;5.45;71.81;100373.81;5112273;28;20039;-46
2021/05/05 02:07:08;;;;;;;1.70;1.20;;;;;;;5.46;71.70;100380.94;5093591;28;20138;-46
2021/05/05 02:09:35;;;;;;;2.40;0.88;;;;;;;5.41;71.65;100388.50;5093817;28;20392;-44
2021/05/05 02:12:02;;;;;;;3.40;1.75;;;;;;;5.34;71.85;100386.25;5093767;28;20407;-46
2021/05/05 02:14:29;;;;;;;2.03;0.80;;;;;;;5.29;72.18;100391.06;5111945;28;20129;-46
2021/05/05 02:16:59;;;;;;;0.85;0.65;;;;;;;5.26;72.18;100392.53;5112023;28;20082;-45
2021/05/05 02:19:25;;;;;;;2.05;0.57;;;;;;;5.20;72.06;100388.28;5112095;28;20056;-45
2021/05/05 02:21:52;;;;;;;2.42;0.95;;;;;;;5.12;72.56;100393.75;5111336;28;20115;-45
2021/05/05 02:24:18;;;;;;;3.17;1.95;;;;;;;5.01;72.76;100387.72;5111175;28;20082;-45
2021/05/05 02:26:45;;;;;;;1.02;0.85;;;;;;;5.01;72.82;100393.22;5111574;28;20075;-47
2021/05/05 02:29:12;;;;;;;2.35;1.30;;;;;;;5.03;72.63;100399.19;5092091;28;20047;-46
2021/05/05 02:31:38;;;;;;;3.55;0.63;;;;;;;5.02;72.75;100397.59;5111428;28;20055;-45
2021/05/05 02:34:05;;;;;;;1.98;0.75;;;;;;;5.05;72.78;100396.97;5110912;28;20078;-46
2021/05/05 02:36:32;;;;;;;2.40;0.93;;;;;;;5.04;73.29;100395.34;5111378;28;20051;-46
2021/05/05 02:39:14;;;;;;;1.70;0.90;;;;;;;5.01;72.88;100395.97;5083936;28;20042;-46
2021/05/05 02:41:42;;;;;;;2.28;1.00;;;;;;;5.05;72.86;100404.38;5111515;28;20089;-45
2021/05/05 02:44:09;;;;;;;3.10;1.17;;;;;;;5.04;72.91;100403.56;5102998;28;20076;-45
2021/05/05 02:46:35;;;;;;;1.58;1.30;;;;;;;5.04;72.59;100392.59;5109817;28;20108;-44
2021/05/05 02:49:03;;;;;;;1.25;0.90;;;;;;;4.97;73.51;100397.72;5111603;28;20070;-45
2021/05/05 02:51:30;;;;;;;1.10;0.90;;;;;;;4.92;73.08;100392.38;5111204;28;20439;-46
2021/05/05 02:53:56;;;;;;;3.70;1.38;;;;;;;4.92;73.53;100397.88;5110958;28;20561;-48
2021/05/05 02:56:22;;;;;;;3.10;1.40;;;;;;;4.93;73.40;100399.47;5111080;28;20134;-45
2021/05/05 02:58:49;;;;;;;5.50;1.55;;;;;;;4.89;73.48;100415.78;5111298;28;20481;-45
2021/05/05 03:01:15;;;;;;;1.65;1.23;;;;;;;4.92;73.39;100415.13;5111122;28;20484;-45
2021/05/05 03:03:41;;;;;;;3.28;1.20;;;;;;;4.91;73.54;100423.69;5092672;28;20063;-47
2021/05/05 03:06:08;;;;;;;1.38;1.08;;;;;;;4.89;73.62;100418.53;5103933;28;20464;-46
2021/05/05 03:08:34;;;;;;;1.42;1.05;;;;;;;4.91;73.66;100429.16;5110951;28;20377;-45
2021/05/05 03:11:02;;;;;;;3.85;1.52;;;;;;;4.93;73.53;100422.22;5111452;28;20127;-46
2021/05/05 03:13:28;;;;;;;3.08;1.42;;;;;;;5.00;73.25;100424.53;5093066;28;20143;-45
2021/05/05 03:15:54;;;;;;;3.20;1.52;;;;;;;4.99;73.65;100420.16;5111283;28;20544;-45
2021/05/05 03:18:20;;;;;;;1.75;1.30;;;;;;;5.02;73.53;100421.47;5111090;28;20126;-45
2021/05/05 03:20:47;;;;;;;1.13;1.10;;;;;;;4.98;73.83;100426.75;5110217;28;20566;-44
2021/05/05 03:23:14;;;;;;;3.90;1.52;;;;;;;4.91;73.43;100429.16;5110623;28;20040;-44
2021/05/05 03:25:40;;;;;;;2.08;1.27;;;;;;;4.87;73.79;100428.97;5108052;28;20063;-52
2021/05/05 03:28:07;;;;;;;1.90;1.10;;;;;;;4.84;73.79;100423.31;5083252;28;20040;-47
2021/05/05 03:30:35;;;;;;;1.35;0.90;;;;;;;4.81;73.59;100422.03;5094760;28;20136;-46
2021/05/05 03:33:02;;;;;;;5.25;1.35;;;;;;;4.77;73.77;100417.47;5108051;28;20059;-49
2021/05/05 03:35:29;;;;;;;2.50;1.38;;;;;;;4.74;74.09;100418.91;5106915;28;20043;-50
2021/05/05 03:37:55;;;;;;;2.78;1.40;;;;;;;4.68;74.02;100413.88;5105836;28;20050;-45
2021/05/05 03:40:21;;;;;;;0.88;0.88;;;;;;;4.64;73.65;100410.13;5108480;28;20126;-45
2021/05/05 03:42:47;;;;;;;4.78;1.20;;;;;;;4.64;73.99;100407.38;5090366;28;20043;-46
2021/05/05 03:45:14;;;;;;;4.28;1.00;;;;;;;4.61;73.95;100410.75;5089212;28;20465;-47
2021/05/05 03:47:40;;;;;;;1.73;0.80;;;;;;;4.58;74.16;100408.66;5108623;28;20379;-47
2021/05/05 03:50:08;;;;;;;1.65;1.02;;;;;;;4.53;74.13;100420.56;5106819;28;20982;-48
2021/05/05 03:52:34;;;;;;;2.88;1.15;;;;;;;4.48;73.91;100422.59;5106411;28;20104;-48
2021/05/05 03:55:01;;;;;;;1.17;1.08;;;;;;;4.49;74.06;100427.78;5108410;28;20083;-45
2021/05/05 03:57:28;;;;;;;3.28;1.30;;;;;;;4.41;74.17;100428.53;5107345;28;20043;-45
2021/05/05 03:59:54;;;;;;;2.10;1.05;;;;;;;4.35;74.06;100432.53;5107830;28;20043;-46
2021/05/05 04:02:21;;;;;;;2.55;1.17;;;;;;;4.32;74.39;100433.97;5106578;28;20492;-46
2021/05/05 04:04:47;;;;;;;3.95;1.13;;;;;;;4.32;74.30;100423.00;5107352;28;20703;-47
2021/05/05 04:07:14;;;;;;;0.95;0.95;;;;;;;4.31;74.32;100432.31;5106706;28;20872;-45
2021/05/05 04:09:42;;;;;;;3.80;1.42;;;;;;;4.26;74.23;100432.44;5110255;28;20051;-45
2021/05/05 04:12:11;;;;;;;1.90;1.27;;;;;;;4.26;74.17;100426.97;5110840;28;20097;-48
2021/05/05 04:14:37;;;;;;;2.47;1.17;;;;;;;4.27;74.31;100425.88;5092718;28;20093;-45
2021/05/05 04:17:22;;;;;;;2.25;1.08;;;;;;;4.24;74.02;100421.00;5111076;28;20174;-45
2021/05/05 04:20:07;;;;;;;3.55;1.10;;;;;;;4.21;74.12;100429.84;5095857;28;20044;-47
2021/05/05 04:22:53;;;;;;;1.90;0.85;;;;;;;4.13;74.46;100432.53;5108333;28;20414;-48
2021/05/05 04:25:38;;;;;;;3.10;1.48;;;;;;;4.12;74.47;100425.41;5111418;28;20150;-48
2021/05/05 04:28:05;;;;;;;3.42;1.45;;;;;;;4.09;74.27;100435.06;5108314;28;20075;-46
2021/05/05 04:30:31;;;;;;;3.17;1.60;;;;;;;4.12;74.36;100439.13;5091055;28;20135;-45
2021/05/05 04:32:57;;;;;;;1.65;1.02;;;;;;;4.11;74.07;100443.78;5110834;28;20045;-46
2021/05/05 04:35:24;;;;;;;1.80;1.60;;;;;;;4.11;74.32;100438.31;5110394;28;20059;-47
2021/05/05 04:37:51;;;;;;;3.08;1.20;;;;;;;4.07;74.16;100442.78;5105841;28;20101;-47
2021/05/05 04:40:18;;;;;;;3.40;1.20;;;;;;;4.04;74.38;100448.88;5072467;28;20062;-48
2021/05/05 04:42:45;;;;;;;4.38;1.23;;;;;;;4.04;74.60;100448.88;5110928;28;20043;-47
2021/05/05 04:45:11;;;;;;;1.73;1.10;;;;;;;3.99;74.64;100461.88;5109887;28;20492;-45
2021/05/05 04:47:38;;;;;;;2.20;0.93;;;;;;;4.05;74.59;100466.13;5109987;28;20071;-45
2021/05/05 04:50:11;;;;;;;1.95;0.90;;;;;;;4.07;74.19;100463.91;5109863;28;20062;-46
2021/05/05 04:52:37;;;;;;;2.28;1.10;;;;;;;4.05;74.09;100471.63;5111401;28;20043;-45
2021/05/05 04:55:05;;;;;;;6.72;1.17;;;;;;;3.99;74.07;100462.69;5109594;28;20124;-48
2021/05/05 04:57:31;;;;;;;4.60;1.30;;;;;;;3.98;74.44;100473.94;5110923;28;20147;-46
2021/05/05 04:59:58;;;;;;;1.30;1.10;;;;;;;3.95;74.58;100461.69;5110057;28;20134;-46
2021/05/05 05:02:24;;;;;;;3.20;1.30;;;;;;;3.92;74.53;100465.03;5107930;28;20043;-48
2021/05/05 05:04:50;;;;;;;2.45;1.05;;;;;;;3.93;74.20;100469.41;5110257;28;20082;-45
2021/05/05 05:07:17;;;;;;;3.28;1.10;;;;;;;3.93;74.56;100474.06;5109083;28;20124;-46
2021/05/05 05:09:44;;;;;;;4.22;1.00;;;;;;;3.92;74.51;100473.25;5110014;28;20489;-45
2021/05/05 05:12:10;;;;;;;3.15;1.00;;;;;;;3.94;74.38;100479.25;5109829;28;20075;-47
2021/05/05 05:14:37;;;;;;;2.25;0.80;;;;;;;3.99;74.36;100473.66;5071944;28;20040;-46
2021/05/05 05:17:04;;;;;;;1.88;1.23;;;;;;;4.01;74.22;100473.34;5090179;28;20120;-47
2021/05/05 05:19:31;;;;;;;1.48;0.77;;;;;;;4.01;73.91;100471.41;5109479;28;20054;-46
2021/05/05 05:21:58;;;;;;;2.72;1.00;;;;;;;4.01;73.92;100487.03;5109031;28;20488;-45
2021/05/05 05:24:24;;;;;;;1.27;0.98;;;;;;;4.01;73.93;100498.81;5110107;28;20075;-49
2021/05/05 05:26:51;;;;;;;3.20;1.00;;;;;;;3.99;74.29;100484.63;5109870;28;20071;-45
2021/05/05 05:29:17;;;;;;;2.58;0.82;;;;;;;3.96;74.15;100493.44;5110239;28;20097;-46
2021/05/05 05:31:44;;;;;;;2.35;1.00;;;;;;;3.93;74.43;100496.78;5109271;28;20055;-45
2021/05/05 05:34:12;;;;;;;2.55;0.95;;;;;;;3.93;74.20;100496.78;5109126;28;20043;-47
2021/05/05 05:36:39;;;;;;;1.15;0.90;;;;;;;3.93;74.54;100496.78;5109397;28;20067;-45
2021/05/05 05:39:06;;;;;;;1.33;0.90;;;;;;;3.93;74.41;100502.25;5109269;28;20039;-48
2021/05/05 05:41:33;;;;;;;4.25;1.05;;;;;;;3.93;74.88;100495.97;5108473;28;20089;-45
2021/05/05 05:44:00;;;;;;;1.27;0.77;;;;;;;3.96;74.67;100507.13;5105296;28;20036;-44
2021/05/05 05:46:26;;;;;;;3.30;0.90;;;;;;;4.03;74.74;100506.69;5091550;28;20662;-49
2021/05/05 05:48:53;;;;;;;3.55;0.90;;;;;;;4.02;74.90;100503.19;5108234;28;20094;-46
2021/05/05 05:51:19;;;;;;;1.70;0.77;;;;;;;4.00;75.34;100502.66;5109547;28;20127;-46
2021/05/05 05:53:46;;;;;;;0.95;0.85;;;;;;;4.06;75.38;100509.66;5109059;28;20051;-45
2021/05/05 05:56:12;;;;;;;1.48;0.65;;;;;;;4.16;75.30;100512.16;5108424;28;20370;-47
2021/05/05 05:58:38;;;;;;;3.13;0.65;;;;;;;4.22;75.02;100516.41;5091701;28;20047;-46
2021/05/05 06:01:05;;;;;;;1.58;0.68;;;;;;;4.24;75.34;100519.63;5108611;28;20058;-44
2021/05/05 06:03:32;;;;;;;1.23;0.75;;;;;;;4.25;75.36;100521.28;5107847;28;20051;-45
2021/05/05 06:05:58;;;;;;;3.53;0.90;;;;;;;4.29;75.26;100527.75;5108905;28;20565;-45
2021/05/05 06:08:25;;;;;;;0.77;0.70;;;;;;;4.30;75.21;100529.38;5108527;28;20116;-49
2021/05/05 06:10:51;;;;;;;1.35;0.80;;;;;;;4.39;75.22;100520.41;5108304;28;20104;-48
2021/05/05 06:13:17;;;;;;;4.18;1.45;;;;;;;4.49;75.32;100522.91;5109779;28;20050;-46
2021/05/05 06:15:46;;;;;;;1.52;0.68;;;;;;;4.52;75.00;100525.03;5107887;28;20100;-45
2021/05/05 06:18:12;;;;;;;1.85;0.90;;;;;;;4.57;75.03;100541.38;5104014;28;20077;-52
2021/05/05 06:20:39;;;;;;;6.10;1.17;;;;;;;4.61;75.35;100536.88;5106536;28;20476;-46
2021/05/05 06:23:05;;;;;;;2.97;1.17;;;;;;;4.64;75.03;100536.25;5091307;28;20124;-46
2021/05/05 06:25:31;;;;;;;0.47;0.43;;;;;;;4.72;75.16;100547.28;5108838;28;20693;-46
2021/05/05 06:27:58;;;;;;;3.45;0.80;;;;;;;4.80;74.96;100537.50;5109182;28;20048;-45
2021/05/05 06:30:25;;;;;;;3.22;1.27;;;;;;;4.80;75.07;100553.97;5089929;28;20078;-49
2021/05/05 06:32:52;;;;;;;3.63;1.30;;;;;;;4.76;74.91;100542.00;5104122;28;20071;-45
2021/05/05 06:35:20;;;;;;;4.47;1.60;;;;;;;4.86;74.82;100547.25;5108686;28;20058;-47
2021/05/05 06:37:47;;;;;;;1.20;1.10;;;;;;;4.83;74.91;100554.16;5104941;28;20044;-50
2021/05/05 06:40:14;;;;;;;4.00;1.88;;;;;;;4.93;74.77;100553.91;5094824;28;20158;-47
2021/05/05 06:42:42;;;;;;;3.42;1.30;;;;;;;5.04;74.87;100551.72;5108724;28;20130;-46
2021/05/05 06:45:09;;;;;;;2.08;1.40;;;;;;;5.16;74.42;100551.97;5109546;28;20130;-49
2021/05/05 06:47:36;;;;;;;4.78;1.20;;;;;;;5.29;74.51;100556.56;5107168;28;20488;-46
2021/05/05 06:50:07;;;;;;;2.45;0.90;;;;;;;5.42;74.70;100561.16;5109557;28;20089;-47
2021/05/05 06:52:34;;;;;;;1.50;1.08;;;;;;;5.52;74.33;100544.41;5108061;28;20115;-46
2021/05/05 06:55:03;;;;;;;1.75;0.80;;;;;;;5.60;74.01;100555.72;5105300;28;20043;-49
2021/05/05 06:57:29;;;;;;;2.75;0.80;;;;;;;5.60;74.24;100552.97;5109212;28;20073;-46
2021/05/05 06:59:55;;;;;;;3.80;0.82;;;;;;;5.66;74.38;100557.22;5108033;28;20067;-46
2021/05/05 07:02:22;;;;;;;0.68;0.57;;;;;;;5.69;74.05;100553.84;5106832;28;20117;-46
2021/05/05 07:04:49;;;;;;;1.63;1.10;;;;;;;5.67;74.19;100556.06;5089886;28;20036;-47
2021/05/05 07:07:15;;;;;;;2.60;1.42;;;;;;;5.69;74.04;100548.34;5107151;28;20047;-45
2021/05/05 07:09:42;;;;;;;2.72;1.00;;;;;;;5.69;74.10;100543.66;5107255;28;20046;-46
2021/05/05 07:12:09;;;;;;;0.65;0.63;;;;;;;5.81;74.09;100554.84;5107919;28;20063;-47
2021/05/05 07:14:35;;;;;;;0.60;0.60;;;;;;;5.98;73.93;100551.38;5107612;28;20043;-47
2021/05/05 07:17:02;;;;;;;2.25;0.60;;;;;;;6.02;73.77;100552.34;5107290;28;20031;-47
2021/05/05 07:19:28;;;;;;;0.75;0.40;;;;;;;5.98;73.30;100551.38;5107067;28;20039;-46
2021/05/05 07:21:54;;;;;;;2.38;1.00;;;;;;;5.83;73.56;100538.03;5101389;28;20036;-48
2021/05/05 07:24:21;;;;;;;2.28;0.85;;;;;;;5.81;73.77;100551.28;5108428;28;20679;-48
2021/05/05 07:26:47;;;;;;;1.02;0.52;;;;;;;5.82;73.57;100558.41;5107176;28;20312;-45
2021/05/05 07:29:13;;;;;;;3.30;0.80;;;;;;;5.84;73.38;100556.16;5108121;28;20088;-49
2021/05/05 07:31:40;;;;;;;1.27;0.80;;;;;;;5.90;73.51;100552.97;5108465;28;20372;-46
2021/05/05 07:34:08;;;;;;;2.90;0.93;;;;;;;5.95;73.60;100552.03;5106132;28;20051;-44
2021/05/05 07:36:35;;;;;;;0.88;0.60;;;;;;;6.06;73.86;100547.84;5107189;28;20070;-46
2021/05/05 07:42:09;;;;;;;2.50;0.68;;;;;;;6.19;74.21;100552.41;5093812;28;20511;-46
2021/05/05 07:49:17;;;;;;;5.13;0.88;;;;;;;6.63;74.49;100560.38;5104901;27;20035;-47
2021/05/05 07:51:45;;;;;;;2.78;0.55;;;;;;;6.77;75.15;100560.22;5108133;28;20389;-46
2021/05/05 07:54:12;;;;;;;2.83;0.82;;;;;;;6.97;75.17;100555.97;5109911;28;20034;-50
2021/05/05 07:56:38;;;;;;;3.45;0.70;;;;;;;7.13;75.32;100554.31;5110565;28;20042;-46
2021/05/05 07:59:04;;;;;;;3.22;1.00;;;;;;;7.38;76.16;100556.22;5111074;28;20039;-48
2021/05/05 08:01:34;;;;;;;2.90;0.95;;;;;;;7.73;76.26;100565.19;5111665;28;20404;-52
2021/05/05 08:04:01;;;;;;;4.53;0.68;;;;;;;7.96;75.87;100564.59;5110172;28;20079;-49
2021/05/05 08:06:28;;;;;;;6.75;0.93;;;;;;;8.33;75.98;100560.19;5092898;28;20393;-45
2021/05/05 08:08:55;;;;;;;4.25;0.68;;;;;;;8.80;75.97;100558.03;5110860;28;20081;-47
2021/05/05 08:11:23;;;;;;;3.25;0.70;;;;;;;9.13;73.26;100558.06;5090949;28;20066;-46
2021/05/05 08:13:52;;;;;;;1.77;0.80;;;;;;;9.58;72.61;100558.84;5109908;28;20785;-46
2021/05/05 08:16:19;;;;;;;1.85;0.95;;;;;;;9.99;71.36;100560.63;5108719;28;20512;-46
2021/05/05 08:18:47;;;;;;;2.30;0.75;;;;;;;10.03;69.12;100561.56;5090342;28;20055;-46
2021/05/05 08:21:14;;;;;;;4.18;0.88;;;;;;;9.93;67.96;100562.00;5110457;28;20104;-48
2021/05/05 08:23:41;;;;;;;2.97;0.63;;;;;;;9.84;66.92;100547.50;5090039;28;20071;-49
2021/05/05 08:26:12;;;;;;;4.20;0.93;;;;;;;10.32;66.81;100541.97;5109138;28;20448;-47
2021/05/05 08:28:39;;;;;;;2.38;0.65;;;;;;;10.38;65.47;100551.63;5099537;28;20410;-48
2021/05/05 08:31:06;;;;;;;3.63;0.70;;;;;;;10.39;64.73;100557.97;5110977;28;20134;-47
2021/05/05 08:33:33;;;;;;;2.70;0.82;;;;;;;9.94;63.46;100551.75;5110127;28;20142;-47
2021/05/05 08:36:00;;;;;;;2.17;0.70;;;;;;;10.13;63.90;100560.31;5110377;28;20408;-48
2021/05/05 08:38:27;;;;;;;4.43;0.63;;;;;;;10.31;63.11;100550.59;5110872;28;20151;-45
2021/05/05 08:40:54;;;;;;;4.45;0.82;;;;;;;10.31;62.59;100550.59;5109994;28;20083;-45
2021/05/05 08:43:20;;;;;;;3.92;0.80;;;;;;;10.15;61.50;100550.50;5106137;28;20071;-51
2021/05/05 08:45:48;;;;;;;4.50;0.70;;;;;;;10.26;61.75;100559.97;5110053;28;20500;-45
2021/05/05 08:48:19;;;;;;;4.65;0.90;;;;;;;10.16;60.95;100565.16;5107783;28;20783;-48
2021/05/05 08:50:46;;;;;;;3.22;0.75;;;;;;;10.11;61.12;100557.06;5089730;28;20539;-45
2021/05/05 08:53:12;;;;;;;3.58;1.02;;;;;;;10.11;61.25;100563.38;5090125;28;20155;-45
2021/05/05 08:55:39;;;;;;;3.13;0.80;;;;;;;10.69;61.42;100564.03;5107304;28;20048;-46
2021/05/05 08:58:05;;;;;;;5.20;1.00;;;;;;;11.52;60.75;100564.00;5109730;28;20199;-46
2021/05/05 09:00:37;;;;;;;5.00;0.80;;;;;;;11.97;60.23;100560.81;5106676;28;20798;-45
2021/05/05 09:03:06;;;;;;;6.78;1.45;;;;;;;12.36;59.78;100565.38;5108625;28;20496;-50
2021/05/05 09:05:51;;;;;;;1.80;1.58;;;;;;;13.09;58.14;100559.00;5109392;28;20089;-46
2021/05/05 09:08:18;;;;;;;2.03;0.63;;;;;;;13.55;56.88;100568.25;5109759;28;20063;-48
2021/05/05 09:11:15;;;;;;;2.08;0.52;;;;;;;14.05;53.28;100559.59;5101919;28;20036;-47
2021/05/05 09:13:53;;;;;;;2.00;0.90;;;;;;;14.40;52.46;100568.53;5087417;28;20146;-51
2021/05/05 09:16:32;;;;;;;3.45;0.80;;;;;;;14.21;52.46;100567.81;5071906;28;20113;-48
2021/05/05 09:19:00;;;;;;;3.05;0.63;;;;;;;14.51;52.10;100554.75;5091240;28;20047;-48
2021/05/05 09:21:41;;;;;;;2.25;0.60;;;;;;;14.61;49.43;100556.91;5109816;28;20036;-49
2021/05/05 09:24:16;;;;;;;2.05;0.90;;;;;;;13.73;49.91;100570.19;5109701;28;20050;-46
2021/05/05 09:26:44;;;;;;;1.05;0.50;;;;;;;13.09;51.32;100570.13;5109128;28;20043;-51
2021/05/05 09:29:12;;;;;;;1.65;1.00;;;;;;;13.38;51.06;100552.84;5108068;28;20043;-47
2021/05/05 09:31:40;;;;;;;4.15;1.80;;;;;;;13.95;50.57;100557.44;5090751;28;20098;-50
2021/05/05 09:34:10;;;;;;;1.63;0.55;;;;;;;14.40;50.05;100553.81;5108039;28;20125;-46
2021/05/05 09:36:41;;;;;;;0.73;0.30;;;;;;;13.84;48.72;100557.28;5107428;28;20044;-50
2021/05/05 09:39:09;;;;;;;1.02;0.40;;;;;;;12.79;48.03;100556.78;5096245;28;20135;-48
2021/05/05 09:41:42;;;;;;;2.10;0.73;;;;;;;12.51;48.83;100558.97;5101531;28;20051;-47
2021/05/05 09:44:09;;;;;;;2.35;0.60;;;;;;;13.11;48.55;100559.44;5108718;28;20036;-48
2021/05/05 09:46:45;;;;;;;3.10;0.80;;;;;;;13.67;48.15;100554.16;5109585;28;20048;-47
2021/05/05 09:49:26;;;;;;;2.63;0.70;;;;;;;13.56;46.81;100550.38;5108204;28;20101;-47
2021/05/05 09:52:15;;;;;;;1.10;0.88;;;;;;;13.62;47.10;100551.69;5090841;28;20062;-47
2021/05/05 09:54:53;;;;;;;3.67;0.73;;;;;;;13.90;44.87;100550.19;5108249;28;20141;-49
2021/05/05 09:57:20;;;;;;;3.15;2.35;;;;;;;14.25;46.53;100551.94;5108702;28;20492;-49
2021/05/05 09:59:56;;;;;;;1.25;0.50;;;;;;;14.83;44.36;100561.56;5109407;28;20047;-46
2021/05/05 10:02:23;;;;;;;3.53;0.57;;;;;;;15.33;44.93;100546.22;5108861;28;20134;-47
2021/05/05 10:05:07;;;;;;;5.25;1.17;;;;;;;14.82;43.72;100548.84;5090467;28;20135;-49
2021/05/05 10:07:59;;;;;;;1.80;0.60;;;;;;;14.12;44.77;100561.69;5108022;28;20071;-47
2021/05/05 10:10:31;;;;;;;3.05;0.93;;;;;;;13.41;45.20;100563.22;5088963;28;20297;-48
2021/05/05 10:13:00;;;;;;;4.18;0.80;;;;;;;13.15;46.21;100561.16;5108128;28;20097;-46
2021/05/05 10:15:30;;;;;;;3.33;0.60;;;;;;;12.80;46.68;100560.38;5107944;28;20050;-52
2021/05/05 10:17:57;;;;;;;2.47;0.93;;;;;;;12.33;47.17;100560.53;5090916;28;20162;-51
2021/05/05 10:20:26;;;;;;;3.45;1.17;;;;;;;12.71;47.49;100557.81;5089845;28;20043;-49
2021/05/05 10:22:58;;;;;;;4.68;1.50;;;;;;;13.49;47.05;100555.81;5107916;28;20066;-45
2021/05/05 10:25:26;;;;;;;3.30;0.73;;;;;;;13.69;46.73;100558.19;5108414;28;20123;-50
2021/05/05 10:27:53;;;;;;;2.15;0.77;;;;;;;13.29;46.95;100578.09;5107928;28;20075;-45
2021/05/05 10:30:29;;;;;;;1.65;0.65;;;;;;;12.59;46.20;100579.34;5110036;27;20489;-46
2021/05/05 10:33:15;;;;;;;2.28;0.50;;;;;;;12.02;47.93;100574.44;5091668;28;20047;-47
2021/05/05 10:35:42;;;;;;;1.23;1.10;;;;;;;11.62;48.31;100569.03;5109498;28;20489;-45
2021/05/05 10:38:36;;;;;;;2.42;1.05;;;;;;;11.71;48.48;100564.13;5101891;28;20052;-46
2021/05/05 10:41:13;;;;;;;1.13;0.60;;;;;;;12.43;47.77;100564.69;5080341;28;20104;-47
2021/05/05 10:43:57;;;;;;;0.45;0.30;;;;;;;12.93;46.99;100558.25;5108795;28;20044;-47
2021/05/05 10:46:32;;;;;;;2.35;1.90;;;;;;;13.17;46.84;100555.22;5107802;28;20052;-46
2021/05/05 10:57:38;;;;;;;2.22;0.82;;;;;;;13.28;47.08;100559.81;5001047;28;20171;-48
2021/05/05 11:00:13;;;;;;;1.10;0.75;;;;;;;12.51;47.74;100558.97;4961078;28;20062;-45
2021/05/05 11:02:57;;;;;;;3.58;1.33;;;;;;;12.14;47.62;100566.00;4969238;28;20061;-46
2021/05/05 11:05:30;;;;;;;6.07;2.28;;;;;;;12.21;48.42;100564.22;4981219;28;20089;-51
2021/05/05 11:08:05;;;;;;;2.45;0.47;;;;;;;12.32;48.62;100567.22;4976458;28;20057;-47
2021/05/05 11:10:35;;;;;;;0.75;0.22;;;;;;;12.29;48.50;100559.63;4988825;28;20043;-49
2021/05/05 11:13:21;;;;;;;0.50;0.25;;;;;;;12.37;47.77;100558.63;4973077;28;20874;-49
2021/05/05 11:15:47;;;;;;;1.83;0.57;;;;;;;12.43;48.22;100562.75;4975432;28;20113;-48
2021/05/05 11:18:27;;;;;;;0.80;0.40;;;;;;;12.34;47.87;100550.22;4985300;28;20093;-46
2021/05/05 11:21:07;;;;;;;2.30;0.95;;;;;;;12.34;47.96;100548.25;4991879;28;20097;-46
2021/05/05 11:23:36;;;;;;;0.80;0.28;;;;;;;12.35;48.21;100552.63;4992788;28;20089;-45
2021/05/05 11:26:21;;;;;;;1.63;0.75;;;;;;;12.32;47.67;100547.81;4992162;28;20117;-46
2021/05/05 11:28:51;;;;;;;0.65;0.20;;;;;;;12.14;48.02;100539.06;4987064;28;20053;-47
2021/05/05 11:31:17;;;;;;;1.40;0.50;;;;;;;11.90;48.77;100546.78;4988475;28;20140;-47
2021/05/05 11:34:00;;;;;;;3.05;0.60;;;;;;;11.85;48.44;100547.06;4987820;28;20470;-48
2021/05/05 11:36:27;;;;;;;1.20;0.60;;;;;;;11.96;48.64;100542.59;4981300;28;20133;-51
2021/05/05 11:38:53;;;;;;;2.13;0.60;;;;;;;12.01;48.09;100545.91;4967837;28;20072;-49
2021/05/05 11:41:22;;;;;;;1.27;0.70;;;;;;;12.14;47.44;100543.81;4992958;28;20092;-47
2021/05/05 11:43:49;;;;;;;2.33;0.52;;;;;;;12.27;47.62;100542.53;4989781;28;20124;-46
2021/05/05 11:46:21;;;;;;;0.93;0.30;;;;;;;12.33;46.59;100538.31;4990661;28;20050;-50
2021/05/05 11:48:48;;;;;;;2.92;0.60;;;;;;;12.48;47.26;100531.09;4992583;28;20038;-48
2021/05/05 11:51:26;;;;;;;1.80;0.52;;;;;;;12.59;45.50;100543.25;4991135;28;20744;-46
2021/05/05 11:53:53;;;;;;;0.50;0.38;;;;;;;12.65;46.75;100548.16;4991402;28;20050;-50
2021/05/05 11:56:21;;;;;;;2.60;0.70;;;;;;;12.53;46.61;100531.63;4991079;28;20042;-48